Time;durP1;ratioP1;P1;durP2;ratioP2;P2;SDS_P1;SDS_P2;PMS_P1;PMS_P2;Temp;Humidity;BMP_temperature;BMP_pressure;BME280_temperature;BME280_humidity;BME280_pressure;Samples;Min_cycle;Max_cycle;Signal;HPM_P1;HPM_P2
2023/05/07 00:00:15;;;;;;;2.58;2.13;;;10.40;99.90;11.40;94054.00;;;;7398764;19;20196;-78
2023/05/07 00:02:48;;;;;;;3.78;2.30;;;10.40;99.90;11.40;94021.00;;;;7398637;19;20208;-78
2023/05/07 00:05:17;;;;;;;2.20;2.00;;;10.40;99.90;11.40;94063.00;;;;7400168;19;20522;-78
2023/05/07 00:08:03;;;;;;;3.72;2.08;;;10.50;99.90;11.30;94073.00;;;;7398411;19;20171;-79
2023/05/07 00:10:37;;;;;;;4.32;2.38;;;10.40;99.90;11.30;94058.00;;;;7400576;19;20129;-79
2023/05/07 00:13:04;;;;;;;5.85;2.40;;;10.40;99.90;11.40;94057.00;;;;7398280;19;20137;-78
2023/05/07 00:15:38;;;;;;;2.80;2.40;;;10.40;99.90;11.50;94063.00;;;;7394831;19;20141;-77
2023/05/07 00:18:05;;;;;;;3.80;2.53;;;10.40;99.90;11.50;94008.00;;;;7397395;19;20161;-76
2023/05/07 00:20:39;;;;;;;4.50;2.85;;;10.50;99.90;11.50;94030.00;;;;7398826;19;20156;-78
2023/05/07 00:23:06;;;;;;;5.13;2.30;;;10.50;99.90;11.50;94049.00;;;;7398306;19;20523;-77
2023/05/07 00:25:33;;;;;;;5.32;2.58;;;10.60;99.90;11.40;94026.00;;;;7398105;19;20209;-77
2023/05/07 00:28:07;;;;;;;4.05;2.50;;;10.50;99.90;11.40;94057.00;;;;7400436;19;20137;-78
2023/05/07 00:30:41;;;;;;;2.55;2.30;;;10.50;99.90;11.30;94048.00;;;;7399337;19;20141;-76
2023/05/07 00:33:08;;;;;;;3.30;2.55;;;10.50;99.90;11.50;94044.00;;;;7391420;19;20482;-78
2023/05/07 00:35:43;;;;;;;5.90;2.95;;;10.50;99.90;11.40;94018.00;;;;7395262;19;20561;-77
2023/05/07 00:38:12;;;;;;;4.25;2.67;;;10.50;99.90;11.30;94021.00;;;;7398892;19;20622;-78
2023/05/07 00:40:46;;;;;;;5.70;2.63;;;10.50;99.90;11.30;94037.00;;;;7397431;19;20145;-77
2023/05/07 00:43:13;;;;;;;4.18;2.67;;;10.50;99.90;11.20;94042.00;;;;7398089;19;20169;-76
2023/05/07 00:45:47;;;;;;;4.45;2.70;;;10.40;99.90;11.30;94033.00;;;;7397822;19;20769;-77
2023/05/07 00:48:15;;;;;;;4.93;2.65;;;10.40;99.90;11.40;93990.00;;;;7400682;19;20137;-77
2023/05/07 00:50:44;;;;;;;6.05;2.90;;;10.50;99.90;11.30;94043.00;;;;7395839;19;20156;-77
2023/05/07 00:53:17;;;;;;;7.60;2.47;;;10.50;99.90;11.30;94015.00;;;;7397895;19;20156;-77
2023/05/07 00:55:51;;;;;;;2.90;2.60;;;10.40;99.90;11.40;93987.00;;;;7397227;19;20172;-77
2023/05/07 00:58:25;;;;;;;3.17;2.78;;;10.50;99.90;11.60;94023.00;;;;7396172;19;20220;-77
2023/05/07 01:01:00;;;;;;;3.95;2.75;;;10.50;99.90;11.60;94001.00;;;;7397212;19;20554;-76
2023/05/07 01:03:33;;;;;;;5.28;2.58;;;10.60;99.90;11.50;94028.00;;;;7393108;19;20498;-76
2023/05/07 01:06:09;;;;;;;3.67;2.92;;;10.60;99.90;11.50;93983.00;;;;7397661;19;20136;-77
2023/05/07 01:08:39;;;;;;;3.65;2.50;;;10.60;99.90;11.50;93980.00;;;;7396525;19;20153;-76
2023/05/07 01:11:14;;;;;;;6.40;2.50;;;10.60;99.90;11.40;94034.00;;;;7399264;19;20198;-76
2023/05/07 01:13:49;;;;;;;4.22;2.65;;;10.60;99.90;11.40;94028.00;;;;7398340;19;20127;-75
2023/05/07 01:16:31;;;;;;;3.45;2.55;;;10.50;99.90;11.40;93996.00;;;;7398695;19;20146;-76
2023/05/07 01:19:05;;;;;;;6.07;2.72;;;10.50;99.90;11.30;93983.00;;;;7396249;19;20152;-77
2023/05/07 01:21:38;;;;;;;4.18;2.67;;;10.50;99.90;11.40;94004.00;;;;7397008;19;20136;-77
2023/05/07 01:24:13;;;;;;;6.28;3.10;;;10.50;99.90;11.50;93986.00;;;;7396642;19;20173;-76
2023/05/07 01:26:42;;;;;;;3.42;2.55;;;10.50;99.90;11.40;94009.00;;;;7398526;19;20146;-76
2023/05/07 01:29:16;;;;;;;4.93;2.67;;;10.50;99.90;11.50;93990.00;;;;7398118;19;20128;-76
2023/05/07 01:31:44;;;;;;;3.08;2.78;;;10.50;99.90;11.70;94026.00;;;;7391527;19;20133;-76
2023/05/07 01:34:21;;;;;;;3.13;2.53;;;10.60;99.90;11.60;94022.00;;;;7395671;19;20132;-76
2023/05/07 01:36:57;;;;;;;5.03;2.85;;;10.60;99.90;11.60;93982.00;;;;7396244;19;20144;-76
2023/05/07 01:39:33;;;;;;;3.92;3.15;;;10.60;99.90;11.60;93979.00;;;;7396213;19;20571;-76
2023/05/07 01:42:13;;;;;;;3.47;3.17;;;10.70;99.90;11.80;94009.00;;;;7396664;19;20136;-77
2023/05/07 01:44:47;;;;;;;4.50;3.33;;;10.70;99.90;12.10;94014.00;;;;7397447;19;20144;-77
2023/05/07 01:47:22;;;;;;;3.38;2.80;;;10.90;99.90;12.00;94024.00;;;;7397784;19;20529;-77
2023/05/07 01:49:57;;;;;;;4.75;2.45;;;10.90;86.50;12.10;94029.00;;;;7397450;19;20120;-77
2023/05/07 01:52:31;;;;;;;4.43;2.83;;;11.00;34.50;12.20;93991.00;;;;7397055;19;20136;-77
2023/05/07 01:54:59;;;;;;;4.63;2.60;;;11.20;1.00;12.20;93982.00;;;;7396725;19;20152;-75
2023/05/07 01:57:33;;;;;;;3.35;2.85;;;11.20;1.00;12.20;94026.00;;;;7395012;19;20139;-76
2023/05/07 02:00:02;;;;;;;3.92;2.50;;;11.20;1.00;12.10;93995.00;;;;7397644;19;20188;-75
2023/05/07 02:02:38;;;;;;;3.15;2.30;;;11.10;1.00;12.00;94022.00;;;;7395860;19;20603;-77
2023/05/07 02:05:06;;;;;;;4.90;2.88;;;11.10;1.00;11.90;94041.00;;;;7397055;19;20136;-77
2023/05/07 02:07:52;;;;;;;3.50;2.40;;;11.00;1.00;11.80;94029.00;;;;7394832;19;20144;-76
2023/05/07 02:10:26;;;;;;;2.80;2.30;;;11.00;1.00;11.70;94001.00;;;;7397931;19;20129;-76
2023/05/07 02:13:01;;;;;;;4.70;2.65;;;11.00;36.60;11.60;94002.00;;;;7395060;19;20180;-76
2023/05/07 02:15:38;;;;;;;4.25;3.00;;;10.90;60.70;11.70;94026.00;;;;7401883;19;20208;-76
2023/05/07 02:18:11;;;;;;;4.53;2.83;;;10.80;85.00;11.40;94031.00;;;;7402001;19;20156;-76
2023/05/07 02:20:38;;;;;;;4.50;2.60;;;10.80;99.90;11.30;94026.00;;;;7402158;19;20640;-75
2023/05/07 02:23:13;;;;;;;8.50;2.55;;;10.70;99.90;11.30;94005.00;;;;7402702;19;20473;-76
2023/05/07 02:25:40;;;;;;;4.03;2.20;;;10.70;99.90;11.40;94015.00;;;;7404074;19;20166;-75
2023/05/07 02:28:15;;;;;;;3.95;2.38;;;10.60;99.90;11.30;94024.00;;;;7399636;19;20141;-76
2023/05/07 02:30:42;;;;;;;2.80;2.60;;;10.60;99.90;11.30;94027.00;;;;7402956;19;20137;-77
2023/05/07 02:33:15;;;;;;;7.05;2.95;;;10.60;99.90;11.30;94007.00;;;;7403694;19;20607;-76
2023/05/07 02:35:42;;;;;;;3.95;2.50;;;10.50;99.90;11.30;94032.00;;;;7403143;19;20143;-76
2023/05/07 02:38:16;;;;;;;3.20;2.58;;;10.50;99.90;11.10;94002.00;;;;7403493;19;20457;-77
2023/05/07 02:40:50;;;;;;;5.95;3.00;;;10.40;99.90;11.20;94032.00;;;;7402771;19;20135;-76
2023/05/07 02:43:17;;;;;;;5.32;2.80;;;10.40;99.90;11.30;94026.00;;;;7401220;19;20145;-77
2023/05/07 02:46:08;;;;;;;3.42;2.80;;;10.40;99.90;11.10;94019.00;;;;7402249;19;20556;-76
2023/05/07 02:48:41;;;;;;;3.63;2.60;;;10.30;99.90;11.00;94039.00;;;;7403630;19;20201;-76
2023/05/07 02:51:20;;;;;;;3.58;2.50;;;10.20;99.90;11.00;93995.00;;;;7402252;19;20216;-74
2023/05/07 02:53:49;;;;;;;4.22;2.95;;;10.20;1.00;11.10;94022.00;;;;7403333;19;20132;-76
2023/05/07 02:56:26;;;;;;;6.25;2.53;;;10.20;1.00;10.90;94013.00;;;;7402538;19;20139;-77
2023/05/07 02:59:00;;;;;;;8.35;2.88;;;10.10;1.00;10.90;94006.00;;;;7401713;19;20138;-78
2023/05/07 03:01:34;;;;;;;2.83;2.50;;;10.10;1.00;10.80;94003.00;;;;7398917;19;20153;-76
2023/05/07 03:04:01;;;;;;;6.28;2.63;;;10.10;1.00;10.70;94002.00;;;;7404272;19;20515;-74
2023/05/07 03:06:35;;;;;;;2.60;2.40;;;10.00;1.00;10.70;94020.00;;;;7403050;19;20125;-76
2023/05/07 03:09:17;;;;;;;2.55;2.33;;;10.00;1.00;10.60;94017.00;;;;7402738;19;20471;-77
2023/05/07 03:11:57;;;;;;;5.43;2.50;;;10.00;1.00;10.60;94032.00;;;;7402281;19;20129;-77
2023/05/07 03:14:31;;;;;;;3.70;2.38;;;9.90;1.00;10.50;94024.00;;;;7402720;19;20137;-76
2023/05/07 03:16:58;;;;;;;3.83;2.50;;;9.80;1.00;10.40;94011.00;;;;7401403;19;20136;-76
2023/05/07 03:19:31;;;;;;;3.65;2.33;;;9.70;51.70;10.40;94010.00;;;;7404061;19;20128;-76
2023/05/07 03:21:58;;;;;;;2.42;2.22;;;9.70;99.90;10.40;94020.00;;;;7401786;19;20606;-77
2023/05/07 03:24:32;;;;;;;3.47;2.97;;;9.70;99.90;10.50;93995.00;;;;7403414;19;20491;-78
2023/05/07 03:27:00;;;;;;;5.55;2.88;;;9.60;99.90;10.50;93984.00;;;;7399045;19;20153;-75
2023/05/07 03:29:34;;;;;;;3.80;3.40;;;9.70;99.90;10.70;94007.00;;;;7398855;19;20141;-76
2023/05/07 03:32:08;;;;;;;3.97;2.70;;;9.80;99.90;10.60;94011.00;;;;7401522;19;20137;-76
2023/05/07 03:34:42;;;;;;;3.15;2.50;;;9.80;99.90;10.50;93985.00;;;;7402727;19;20576;-76
2023/05/07 03:37:16;;;;;;;3.92;2.97;;;9.70;99.90;10.70;93964.00;;;;7400820;19;20476;-77
2023/05/07 03:39:43;;;;;;;4.57;2.97;;;9.80;99.90;10.80;93985.00;;;;7403303;19;20622;-77
2023/05/07 03:42:17;;;;;;;4.00;3.35;;;9.90;82.50;10.80;93991.00;;;;7398237;19;20770;-75
2023/05/07 03:44:44;;;;;;;3.67;2.70;;;9.80;65.90;10.70;93994.00;;;;7403516;19;20164;-76
2023/05/07 03:47:18;;;;;;;3.33;2.90;;;9.80;49.30;10.60;94002.00;;;;7399154;19;20142;-75
2023/05/07 03:49:45;;;;;;;2.83;2.63;;;9.80;49.20;10.50;94010.00;;;;7402399;19;20129;-77
2023/05/07 03:52:12;;;;;;;3.33;2.53;;;9.80;68.60;10.40;93988.00;;;;7400669;19;20616;-76
2023/05/07 03:54:46;;;;;;;4.40;2.80;;;9.70;99.90;10.60;93998.00;;;;7399497;19;20153;-77
2023/05/07 03:57:13;;;;;;;3.97;2.75;;;9.70;99.90;10.40;93993.00;;;;7402328;19;20154;-77
2023/05/07 03:59:47;;;;;;;5.15;2.60;;;9.70;99.90;10.30;94008.00;;;;7402669;19;20147;-76
2023/05/07 04:02:21;;;;;;;3.08;2.63;;;9.60;99.90;10.40;93993.00;;;;7398616;19;20189;-76
2023/05/07 04:04:56;;;;;;;3.97;2.70;;;9.70;99.90;10.40;93996.00;;;;7400384;19;20148;-77
2023/05/07 04:07:23;;;;;;;3.30;2.40;;;9.70;99.90;10.40;93997.00;;;;7401940;19;20133;-76
2023/05/07 04:09:57;;;;;;;2.83;2.60;;;9.60;99.90;10.50;94017.00;;;;7396609;19;20153;-77
2023/05/07 04:12:38;;;;;;;2.45;2.25;;;9.60;99.90;10.40;94009.00;;;;7400262;19;20148;-75
2023/05/07 04:15:06;;;;;;;3.75;2.58;;;9.60;99.90;10.40;94003.00;;;;7401590;19;20601;-74
2023/05/07 04:17:41;;;;;;;2.65;2.40;;;9.60;99.90;10.40;93982.00;;;;7397871;19;20144;-74
2023/05/07 04:20:10;;;;;;;3.05;2.75;;;9.60;99.90;10.40;94026.00;;;;7399723;19;20647;-76
2023/05/07 04:22:44;;;;;;;3.28;2.92;;;9.60;99.90;10.50;93973.00;;;;7398998;19;20593;-75
2023/05/07 04:25:11;;;;;;;2.80;2.50;;;9.60;99.90;10.50;94007.00;;;;7400239;19;20156;-76
2023/05/07 04:27:45;;;;;;;5.72;2.20;;;9.70;99.90;10.60;93983.00;;;;7400881;19;20146;-77
2023/05/07 04:30:13;;;;;;;4.95;2.42;;;9.70;99.90;10.60;93999.00;;;;7396721;19;20117;-76
2023/05/07 04:32:48;;;;;;;4.10;2.40;;;9.80;99.90;10.70;93993.00;;;;7401614;19;20132;-76
2023/05/07 04:35:22;;;;;;;2.92;2.60;;;9.90;99.90;10.80;94026.00;;;;7400818;19;20141;-76
2023/05/07 04:37:56;;;;;;;4.10;2.50;;;10.00;99.90;10.90;93997.00;;;;7401100;19;20144;-76
2023/05/07 04:40:30;;;;;;;3.42;2.53;;;10.00;99.90;11.10;94020.00;;;;7398753;19;20588;-74
2023/05/07 04:42:57;;;;;;;5.07;2.75;;;10.20;5.50;11.20;94016.00;;;;7400977;19;20124;-75
2023/05/07 04:45:31;;;;;;;2.78;2.35;;;10.30;1.00;11.30;93968.00;;;;7399406;19;20137;-76
2023/05/07 04:48:05;;;;;;;2.83;2.30;;;10.40;1.00;11.30;93992.00;;;;7398449;19;20161;-76
2023/05/07 04:50:32;;;;;;;7.70;2.45;;;10.50;1.00;11.30;94017.00;;;;7397999;19;20152;-76
2023/05/07 04:53:06;;;;;;;4.35;2.10;;;10.50;1.00;11.30;94021.00;;;;7398846;19;20153;-76
2023/05/07 04:55:33;;;;;;;5.78;1.95;;;10.60;1.00;11.40;93998.00;;;;7398525;19;20123;-76
2023/05/07 04:58:08;;;;;;;2.90;2.13;;;10.70;1.00;11.40;94026.00;;;;7398425;19;20144;-76
2023/05/07 05:00:35;;;;;;;3.15;2.17;;;10.90;1.00;11.60;94026.00;;;;7396120;19;20172;-77
2023/05/07 05:03:09;;;;;;;2.88;2.10;;;10.90;1.00;11.80;94011.00;;;;7397097;19;20216;-76
2023/05/07 05:05:37;;;;;;;3.47;2.60;;;11.00;1.00;12.00;94023.00;;;;7397686;19;20125;-75
2023/05/07 05:08:04;;;;;;;2.40;2.20;;;11.10;99.90;12.20;94019.00;;;;7398944;19;20141;-74
2023/05/07 05:10:44;;;;;;;4.22;2.50;;;11.20;99.90;12.60;93963.00;;;;7397960;19;20192;-76
2023/05/07 05:13:17;;;;;;;3.78;2.10;;;11.40;99.90;12.80;94026.00;;;;7399101;19;20145;-77
2023/05/07 05:15:45;;;;;;;3.55;2.75;;;11.60;99.90;13.20;94034.00;;;;7395665;19;20642;-76
2023/05/07 05:18:20;;;;;;;4.72;2.97;;;11.90;99.90;13.60;93984.00;;;;7398940;19;20478;-75
2023/05/07 05:20:47;;;;;;;3.00;2.60;;;12.10;1.00;14.00;94021.00;;;;7395867;19;20145;-76
2023/05/07 05:23:21;;;;;;;2.88;2.45;;;12.40;1.00;14.20;93984.00;;;;7398696;19;20119;-75
2023/05/07 05:25:57;;;;;;;3.83;2.20;;;12.70;1.00;14.30;94018.00;;;;7395562;19;20614;-76
2023/05/07 05:28:24;;;;;;;2.33;2.13;;;12.90;1.00;14.30;94001.00;;;;7394204;19;20477;-76
2023/05/07 05:31:14;;;;;;;3.28;2.15;;;13.10;1.00;14.20;94018.00;;;;7395524;19;20153;-75
2023/05/07 05:33:48;;;;;;;3.67;2.08;;;13.30;1.00;14.30;94009.00;;;;7398008;19;20137;-76
2023/05/07 05:36:22;;;;;;;5.03;2.10;;;13.30;1.00;14.30;94042.00;;;;7396554;19;20133;-77
2023/05/07 05:38:49;;;;;;;2.88;2.10;;;13.30;99.90;14.40;94043.00;;;;7398204;19;20664;-76
2023/05/07 05:41:23;;;;;;;2.70;2.40;;;13.30;99.90;14.70;94020.00;;;;7395091;19;20472;-76
2023/05/07 05:43:51;;;;;;;5.10;2.35;;;13.40;99.90;15.20;94026.00;;;;7398339;19;20155;-75
2023/05/07 05:46:25;;;;;;;4.32;2.20;;;13.60;99.90;15.60;94013.00;;;;7396407;19;20129;-75
2023/05/07 05:49:02;;;;;;;3.22;2.30;;;14.00;99.90;16.10;94006.00;;;;7402663;19;20132;-76
2023/05/07 05:51:36;;;;;;;3.75;2.30;;;14.30;99.90;16.60;94009.00;;;;7410927;19;20587;-75
2023/05/07 05:54:10;;;;;;;2.95;2.20;;;14.70;39.50;16.80;93991.00;;;;7412265;19;20180;-77
2023/05/07 05:56:37;;;;;;;3.85;2.10;;;14.90;1.00;16.90;93999.00;;;;7409141;19;20159;-75
2023/05/07 05:59:14;;;;;;;4.95;2.20;;;15.10;12.50;16.70;94032.00;;;;7409831;19;20147;-74
2023/05/07 06:01:41;;;;;;;2.78;1.98;;;15.20;1.00;16.30;94026.00;;;;7408876;19;20160;-76
2023/05/07 06:04:08;;;;;;;5.53;1.58;;;15.10;1.00;15.90;94051.00;;;;7409321;19;20535;-76
2023/05/07 06:06:42;;;;;;;3.42;1.85;;;14.90;11.10;15.60;94044.00;;;;7410122;19;20196;-76
2023/05/07 06:09:09;;;;;;;3.30;1.80;;;14.70;44.80;15.10;94055.00;;;;7409017;19;20192;-76
2023/05/07 06:11:56;;;;;;;3.80;2.22;;;14.50;85.70;15.10;94039.00;;;;7410428;19;20492;-76
2023/05/07 06:14:26;;;;;;;2.15;1.95;;;14.30;90.10;15.00;94026.00;;;;7411437;19;20503;-76
2023/05/07 06:17:00;;;;;;;9.02;2.30;;;14.20;99.90;15.30;94039.00;;;;7409966;19;20132;-75
2023/05/07 06:19:28;;;;;;;2.50;2.15;;;14.20;99.90;16.30;93998.00;;;;7403559;19;20160;-76
2023/05/07 06:22:02;;;;;;;4.90;2.25;;;14.40;99.90;17.20;94030.00;;;;7408786;19;20156;-77
2023/05/07 06:24:35;;;;;;;3.58;2.10;;;14.70;99.90;17.70;94046.00;;;;7409701;19;20143;-74
2023/05/07 06:27:09;;;;;;;4.47;2.63;;;15.00;87.40;18.10;94043.00;;;;7406396;19;20520;-77
2023/05/07 06:29:36;;;;;;;3.97;3.20;;;15.50;99.90;18.00;94019.00;;;;7409752;19;20155;-77
2023/05/07 06:32:12;;;;;;;4.20;2.95;;;15.80;8.90;18.70;94055.00;;;;7408640;19;20123;-75
2023/05/07 06:34:40;;;;;;;3.97;2.97;;;16.10;1.00;18.90;94028.00;;;;7410821;19;20150;-76
2023/05/07 06:37:08;;;;;;;5.00;3.50;;;16.40;1.00;19.10;94024.00;;;;7405757;19;20495;-76
2023/05/07 06:39:41;;;;;;;3.42;2.80;;;16.70;1.00;20.00;94037.00;;;;7406973;19;20129;-75
2023/05/07 06:42:08;;;;;;;5.78;2.88;;;16.90;1.00;19.90;94021.00;;;;7409522;19;20133;-75
2023/05/07 06:44:42;;;;;;;6.55;2.33;;;17.20;1.00;19.80;94047.00;;;;7408726;19;20164;-76
2023/05/07 06:47:16;;;;;;;4.10;2.60;;;17.30;1.00;20.20;94024.00;;;;7408431;19;20153;-76
2023/05/07 06:49:50;;;;;;;2.92;2.15;;;17.60;1.00;20.70;94018.00;;;;7407884;19;20141;-77
2023/05/07 06:52:24;;;;;;;4.30;3.20;;;17.80;1.00;21.40;94015.00;;;;7408058;19;20148;-76
2023/05/07 06:54:51;;;;;;;3.97;2.35;;;18.20;1.00;21.00;94015.00;;;;7408386;19;20137;-77
2023/05/07 06:57:25;;;;;;;5.80;3.28;;;18.60;1.00;21.50;94036.00;;;;7407783;19;20152;-76
2023/05/07 06:59:52;;;;;;;2.60;2.40;;;18.90;1.00;21.90;94033.00;;;;7409028;19;20457;-78
2023/05/07 07:02:26;;;;;;;6.28;3.55;;;19.10;1.00;21.30;94044.00;;;;7398376;19;20181;-76
2023/05/07 07:04:53;;;;;;;4.25;2.80;;;19.20;1.00;20.90;94060.00;;;;7402495;19;20133;-76
2023/05/07 07:07:27;;;;;;;3.42;2.55;;;19.20;1.00;20.50;94027.00;;;;7400581;19;20471;-77
2023/05/07 07:10:15;;;;;;;4.47;2.63;;;19.00;1.00;19.40;94045.00;;;;7400002;19;20184;-77
2023/05/07 07:12:50;;;;;;;4.95;2.40;;;18.80;1.00;19.00;94057.00;;;;7400487;19;20204;-76
2023/05/07 07:15:24;;;;;;;2.95;2.38;;;18.50;1.00;18.90;94037.00;;;;7400227;19;20607;-75
2023/05/07 07:17:52;;;;;;;3.03;2.70;;;18.20;1.00;18.60;94059.00;;;;7398242;19;20146;-76
2023/05/07 07:20:25;;;;;;;3.63;2.75;;;18.10;1.00;18.80;94063.00;;;;7401326;19;20148;-78
2023/05/07 07:22:59;;;;;;;4.07;2.50;;;17.80;1.00;18.90;94057.00;;;;7394485;19;20149;-77
2023/05/07 07:25:33;;;;;;;3.33;2.33;;;17.60;1.00;18.40;94062.00;;;;7398724;19;20157;-76
2023/05/07 07:28:00;;;;;;;3.03;1.98;;;17.40;1.00;18.50;94050.00;;;;7398235;19;20755;-76
2023/05/07 07:30:34;;;;;;;3.55;2.70;;;17.30;1.00;19.30;94070.00;;;;7398903;19;20153;-77
2023/05/07 07:33:08;;;;;;;4.43;2.38;;;17.40;1.00;19.50;94024.00;;;;7400984;19;20589;-76
2023/05/07 07:35:42;;;;;;;5.03;2.70;;;17.50;1.00;19.80;94060.00;;;;7398998;19;20182;-76
2023/05/07 07:38:10;;;;;;;3.30;2.45;;;17.80;1.00;21.00;94048.00;;;;7399805;19;20523;-77
2023/05/07 07:40:44;;;;;;;2.92;2.63;;;18.20;1.00;21.60;94051.00;;;;7396460;19;20617;-78
2023/05/07 07:43:17;;;;;;;3.33;2.50;;;18.80;1.00;22.50;94058.00;;;;7394613;19;20609;-76
2023/05/07 07:45:51;;;;;;;3.00;2.17;;;19.40;1.00;23.00;94069.00;;;;7399940;19;20459;-79
2023/05/07 07:48:25;;;;;;;3.75;2.97;;;19.80;1.00;22.20;94070.00;;;;7398744;19;20155;-77
2023/05/07 07:50:59;;;;;;;4.00;2.33;;;19.90;1.00;21.50;94053.00;;;;7394340;19;20143;-76
2023/05/07 07:53:33;;;;;;;6.50;2.70;;;19.90;1.00;20.90;94053.00;;;;7399747;19;20127;-77
2023/05/07 07:56:00;;;;;;;2.67;2.20;;;19.60;1.00;20.10;94057.00;;;;7397945;19;20156;-76
2023/05/07 07:58:35;;;;;;;3.45;2.30;;;19.00;1.00;19.70;94077.00;;;;7399452;19;20465;-77
2023/05/07 08:01:09;;;;;;;3.67;2.50;;;18.70;1.00;20.10;94083.00;;;;7394724;19;20515;-79
2023/05/07 08:03:43;;;;;;;4.47;2.55;;;18.50;1.00;20.50;94073.00;;;;7396013;19;20244;-76
2023/05/07 08:06:11;;;;;;;5.70;2.65;;;18.60;1.00;21.40;94066.00;;;;7399347;19;20247;-78
2023/05/07 08:08:58;;;;;;;2.80;2.50;;;18.90;1.00;22.20;94057.00;;;;7398831;19;20161;-76
2023/05/07 08:11:32;;;;;;;2.95;2.60;;;19.40;1.00;23.10;94059.00;;;;7398932;19;20133;-77
2023/05/07 08:14:06;;;;;;;4.40;2.72;;;19.80;1.00;23.30;94059.00;;;;7399889;19;20204;-78
2023/05/07 08:16:40;;;;;;;3.72;2.53;;;20.30;1.00;24.10;94048.00;;;;7398487;19;20161;-76
2023/05/07 08:19:14;;;;;;;3.53;2.45;;;20.40;1.00;24.80;94066.00;;;;7393575;19;20172;-77
2023/05/07 08:21:41;;;;;;;3.75;2.45;;;21.00;1.00;24.30;94056.00;;;;7397552;19;20216;-78
2023/05/07 08:24:15;;;;;;;3.85;2.60;;;21.40;1.00;24.90;94074.00;;;;7396204;19;20196;-77
2023/05/07 08:26:44;;;;;;;5.38;2.88;;;21.70;1.00;24.80;94064.00;;;;7396161;19;20171;-77
2023/05/07 08:29:18;;;;;;;4.28;2.53;;;21.60;1.00;24.20;94053.00;;;;7394748;19;20216;-76
2023/05/07 08:31:45;;;;;;;4.18;2.47;;;21.00;1.00;23.40;94031.00;;;;7398380;19;20703;-78
2023/05/07 08:34:12;;;;;;;5.72;3.47;;;21.00;1.00;23.70;94050.00;;;;7397221;19;20174;-76
2023/05/07 08:36:48;;;;;;;4.75;3.10;;;21.00;1.00;23.30;94040.00;;;;7396651;19;20220;-77
2023/05/07 08:39:18;;;;;;;4.97;3.40;;;21.20;1.00;25.10;94054.00;;;;7398797;19;20553;-79
2023/05/07 08:41:57;;;;;;;4.05;3.63;;;21.70;1.00;25.50;94023.00;;;;7396319;19;20124;-77
2023/05/07 08:44:27;;;;;;;3.10;2.30;;;22.20;1.00;24.50;94051.00;;;;7395290;19;20152;-77
2023/05/07 08:47:02;;;;;;;2.75;2.55;;;22.30;1.00;24.70;94036.00;;;;7395089;19;20629;-76
2023/05/07 08:49:29;;;;;;;5.20;2.85;;;22.20;1.00;24.70;94072.00;;;;7397922;19;20152;-77
2023/05/07 08:52:03;;;;;;;4.22;2.80;;;22.30;1.00;25.40;94065.00;;;;7396821;19;20149;-75
2023/05/07 08:54:31;;;;;;;4.25;2.60;;;22.50;1.00;26.00;94006.00;;;;7395538;19;20129;-77
2023/05/07 08:56:59;;;;;;;4.07;3.47;;;22.50;1.00;25.80;94057.00;;;;7397263;19;20473;-76
2023/05/07 08:59:32;;;;;;;4.25;2.58;;;22.50;1.00;25.60;94064.00;;;;7394915;19;20133;-76
2023/05/07 09:02:00;;;;;;;3.22;2.33;;;22.80;1.00;25.60;94047.00;;;;7395964;19;20639;-77
2023/05/07 09:04:35;;;;;;;2.67;2.47;;;22.90;1.00;25.80;94048.00;;;;7397553;19;20159;-77
2023/05/07 09:07:05;;;;;;;3.88;2.30;;;22.50;1.00;25.70;94065.00;;;;7396765;19;20133;-77
2023/05/07 09:09:33;;;;;;;3.75;2.88;;;22.60;1.00;26.20;94027.00;;;;7391661;19;20149;-77
2023/05/07 09:12:07;;;;;;;3.35;2.65;;;22.70;1.00;26.40;94056.00;;;;7388549;19;20607;-76
2023/05/07 09:14:41;;;;;;;4.32;2.60;;;23.60;1.00;27.30;94054.00;;;;7391426;19;20140;-77
2023/05/07 09:17:18;;;;;;;4.25;2.83;;;23.80;1.00;26.20;94058.00;;;;7389986;19;20619;-77
2023/05/07 09:19:53;;;;;;;4.53;2.45;;;23.60;1.00;26.20;94055.00;;;;7390866;19;20474;-79
2023/05/07 09:22:26;;;;;;;6.20;2.45;;;23.90;1.00;27.10;94027.00;;;;7388340;19;20169;-78
2023/05/07 09:24:53;;;;;;;3.65;2.40;;;24.30;1.00;27.40;94041.00;;;;7388283;19;20232;-77
2023/05/07 09:27:27;;;;;;;4.55;2.30;;;24.70;1.00;26.10;94076.00;;;;7388632;19;20140;-77
2023/05/07 09:30:08;;;;;;;3.05;2.35;;;24.20;1.00;26.20;94079.00;;;;7388710;19;20139;-77
2023/05/07 09:32:41;;;;;;;3.33;2.50;;;23.90;1.00;26.70;94079.00;;;;7385081;19;20185;-75
2023/05/07 09:35:17;;;;;;;2.75;2.55;;;23.80;1.00;25.60;94081.00;;;;7388759;19;20155;-76
2023/05/07 09:37:45;;;;;;;5.82;2.67;;;23.80;1.00;24.50;94101.00;;;;7391036;19;20121;-76
2023/05/07 09:40:28;;;;;;;4.03;2.28;;;23.50;1.00;23.50;94098.00;;;;7389748;19;20211;-76
2023/05/07 09:42:56;;;;;;;3.42;2.30;;;23.00;1.00;23.00;94113.00;;;;7390126;19;20145;-75
2023/05/07 09:45:29;;;;;;;2.95;2.45;;;22.60;1.00;22.00;94113.00;;;;7387997;19;20148;-76
2023/05/07 09:47:58;;;;;;;4.22;2.25;;;22.10;1.00;21.50;94098.00;;;;7390217;19;20163;-77
2023/05/07 09:50:49;;;;;;;3.38;2.20;;;21.20;1.00;20.50;94104.00;;;;7389110;19;20591;-77
2023/05/07 09:53:24;;;;;;;2.72;1.92;;;20.70;1.00;18.90;94121.00;;;;7390390;19;20188;-75
2023/05/07 09:55:52;;;;;;;3.95;2.33;;;20.20;1.00;18.30;94130.00;;;;7388493;19;20156;-77
2023/05/07 09:58:31;;;;;;;2.92;2.25;;;19.50;1.00;17.90;94128.00;;;;7388305;19;20483;-76
2023/05/07 10:00:58;;;;;;;4.68;2.22;;;18.80;1.00;18.10;94127.00;;;;7389917;19;20148;-76
2023/05/07 10:03:35;;;;;;;3.40;2.42;;;18.20;1.00;17.40;94138.00;;;;7389671;19;20212;-74
2023/05/07 10:06:04;;;;;;;3.72;2.50;;;17.70;99.90;17.20;94127.00;;;;7389673;19;20133;-74
2023/05/07 10:08:52;;;;;;;5.70;2.80;;;17.20;99.90;16.50;94139.00;;;;7387741;19;20219;-74
2023/05/07 10:11:27;;;;;;;2.97;2.45;;;16.80;99.90;15.90;94135.00;;;;7387117;19;20133;-75
2023/05/07 10:14:05;;;;;;;4.07;2.63;;;16.50;1.00;15.80;94152.00;;;;7390996;19;20140;-74
2023/05/07 10:16:38;;;;;;;3.88;2.80;;;16.20;99.90;15.80;94139.00;;;;7387614;19;20141;-74
2023/05/07 10:19:12;;;;;;;6.38;3.15;;;16.00;1.00;15.50;94117.00;;;;7387955;19;20148;-78
2023/05/07 10:22:02;;;;;;;13.93;3.60;;;15.70;1.00;15.10;94121.00;;;;7385987;19;20167;-76
2023/05/07 10:24:37;;;;;;;6.68;4.38;;;15.50;1.00;14.80;94126.00;;;;7388240;19;20149;-77
2023/05/07 10:27:15;;;;;;;6.32;3.85;;;15.20;1.00;14.80;94147.00;;;;7385990;19;20165;-77
2023/05/07 10:30:37;;;;;;;6.65;3.80;;;15.00;1.00;14.60;94157.00;;;;7384980;19;20152;-77
2023/05/07 10:33:08;;;;;;;7.15;4.05;;;14.80;1.00;14.50;94126.00;;;;7393051;19;20168;-77
2023/05/07 10:35:47;;;;;;;8.80;4.20;;;14.60;82.00;14.40;94159.00;;;;7397758;19;20209;-77
2023/05/07 10:38:15;;;;;;;4.88;3.78;;;14.50;99.90;14.30;94131.00;;;;7402086;19;20458;-76
2023/05/07 10:40:42;;;;;;;7.88;4.38;;;14.30;1.00;14.30;94148.00;;;;7401662;19;20181;-78
2023/05/07 10:43:17;;;;;;;11.13;4.57;;;14.20;1.00;14.40;94135.00;;;;7399336;19;20140;-78
2023/05/07 10:46:10;;;;;;;10.65;4.90;;;14.20;1.00;14.30;94145.00;;;;7399357;19;20140;-78
2023/05/07 10:49:03;;;;;;;6.43;4.75;;;14.30;1.00;14.30;94165.00;;;;7402074;19;20436;-78
2023/05/07 10:51:32;;;;;;;6.00;4.68;;;14.30;99.90;14.10;94140.00;;;;7401284;19;20133;-78
2023/05/07 10:54:12;;;;;;;8.13;4.30;;;14.20;99.90;14.10;94155.00;;;;7399528;19;20144;-78
2023/05/07 10:56:47;;;;;;;6.10;4.18;;;14.10;73.00;13.70;94116.00;;;;7399287;19;20687;-78
2023/05/07 10:59:20;;;;;;;4.43;3.80;;;14.00;1.00;13.70;94151.00;;;;7397948;19;20198;-78
2023/05/07 11:01:59;;;;;;;7.47;4.30;;;13.80;1.00;13.90;94153.00;;;;7399008;19;20152;-77
2023/05/07 11:04:34;;;;;;;6.25;4.40;;;13.80;1.00;14.10;94143.00;;;;7395495;19;20153;-77
2023/05/07 11:07:12;;;;;;;8.75;5.25;;;13.90;99.90;14.40;94146.00;;;;7400492;19;20630;-78
2023/05/07 11:09:52;;;;;;;7.72;5.22;;;14.10;1.00;14.60;94152.00;;;;7397819;19;20620;-78
2023/05/07 11:12:36;;;;;;;8.57;5.38;;;14.20;1.00;14.70;94139.00;;;;7399833;19;20493;-78
2023/05/07 11:15:39;;;;;;;7.35;4.72;;;14.40;1.20;14.90;94143.00;;;;7400312;19;20280;-77
2023/05/07 11:18:06;;;;;;;7.57;5.07;;;14.50;72.60;14.80;94142.00;;;;7399199;19;20624;-78
2023/05/07 11:20:58;;;;;;;8.23;5.22;;;14.70;36.60;14.80;94153.00;;;;7392542;19;20148;-78
2023/05/07 11:23:35;;;;;;;6.15;4.85;;;14.70;1.00;14.80;94146.00;;;;7396495;19;20147;-78
2023/05/07 11:26:11;;;;;;;7.80;4.97;;;14.60;1.00;14.30;94123.00;;;;7399788;19;20576;-77